Eems Servant — PBTI — position and weather

sailwx.info

Track history (hours):
 
Tides and Currents Weather Stations Pressure Air Temp Water Temp Dewpoint Dewpoint Depression Visibility Wind Speed Wind Dir Waves Ship Positions

Eems Servant

Last reported at 2014-Oct-20 06:23 UTC. Time now 2014-Oct-21 10:35 UTC.
Position N 46°05' W 001°15'.

Length 87 m; draft 2.7 m.

Type: Cargo ship. MMSI: 246236000.

Date/timePositionNaut miles runAvg speedWind from/ knotsBaromVisibWave heightAir tempDewpointWater temp
2014-Oct-20 06:23N 46°05' W 001°15'0 0.0
2014-Oct-20 05:29N 46°05' W 001°15'0 0.0
2014-Oct-20 03:17N 46°05' W 001°15'0 0.0
2014-Oct-20 02:32N 46°05' W 001°15'0 0.0
2014-Oct-20 01:29N 46°05' W 001°15'0 0.0
2014-Oct-19 22:32N 46°05' W 001°15'0 0.0
2014-Oct-19 00:17N 46°05' W 001°15'0 0.0
2014-Oct-18 23:32N 46°05' W 001°15'0 0.0
2014-Oct-18 22:23N 46°05' W 001°15'0 0.0
2014-Oct-18 21:20N 46°05' W 001°15'0 0.0
2014-Oct-18 15:23N 46°05' W 001°15'3 0.1
2014-Oct-17 17:33N 46°06' W 001°20'9 9.3
2014-Oct-17 16:33N 46°06' W 001°33'9 9.1
2014-Oct-17 15:33N 46°04' W 001°46'9 9.2
2014-Oct-17 14:33N 46°03' W 001°60'169 4.0
2014-Oct-15 20:33N 43°20' W 003°02'  
2014-Oct-11 12:23N 50°35' E 000°10'6 7.0
2014-Oct-11 11:33N 50°36' E 000°19'6 6.0
2014-Oct-11 10:33N 50°38' E 000°28'6 6.3
2014-Oct-11 09:33N 50°40' E 000°37'8 7.8
2014-Oct-11 08:33N 50°45' E 000°47'20 9.5
2014-Oct-11 06:30N 50°57' E 001°12'9 9.2
2014-Oct-11 05:33N 51°02' E 001°23'8 8.0
2014-Oct-11 04:33N 51°07' E 001°33'6 6.1
2014-Oct-11 03:33N 51°11' E 001°40'5 5.4
2014-Oct-11 02:33N 51°15' E 001°46'6 5.7
2014-Oct-11 01:34N 51°20' E 001°50'7 6.8
2014-Oct-11 00:34N 51°26' E 001°55'9 8.6
2014-Oct-10 23:33N 51°32' E 002°05'10 9.8
2014-Oct-10 22:33N 51°39' E 002°16'55 8.5
2014-Oct-10 16:04N 52°03' E 003°36'4 7.4
2014-Oct-10 15:30N 52°04' E 003°43'7 7.3
2014-Oct-10 14:33N 52°02' E 003°54'7 7.3
2014-Oct-10 13:33N 51°59' E 004°04'1010.2
2014-Oct-10 12:33N 51°54' E 004°18'2 1.8
2014-Oct-10 11:32N 51°54' E 004°21'0 0.0
2014-Oct-10 10:32N 51°54' E 004°21'0 0.0
2014-Oct-10 09:32N 51°54' E 004°21'0 0.0
2014-Oct-10 08:32N 51°54' E 004°21'0 0.0
2014-Oct-10 07:32N 51°54' E 004°21'0 0.0
2014-Oct-10 06:32N 51°54' E 004°21'  
Track history (hours):
 
Tides and Currents Weather Stations Pressure Air Temp Water Temp Dewpoint Dewpoint Depression Visibility Wind Speed Wind Dir Waves Ship Positions

Eems Servant

Last reported at 2014-Oct-20 06:23 UTC. Time now 2014-Oct-21 10:35 UTC.
Position N 46°05' W 001°15'.

Length 87 m; draft 2.7 m.

Type: Cargo ship. MMSI: 246236000.

Date/timePositionNaut miles runAvg speedWind from/ knotsBaromVisibWave heightAir tempDewpointWater temp
2014-Oct-20 06:23N 46°05' W 001°15'0 0.0
2014-Oct-20 05:29N 46°05' W 001°15'0 0.0
2014-Oct-20 03:17N 46°05' W 001°15'0 0.0
2014-Oct-20 02:32N 46°05' W 001°15'0 0.0
2014-Oct-20 01:29N 46°05' W 001°15'0 0.0
2014-Oct-19 22:32N 46°05' W 001°15'0 0.0
2014-Oct-19 00:17N 46°05' W 001°15'0 0.0
2014-Oct-18 23:32N 46°05' W 001°15'0 0.0
2014-Oct-18 22:23N 46°05' W 001°15'0 0.0
2014-Oct-18 21:20N 46°05' W 001°15'0 0.0
2014-Oct-18 15:23N 46°05' W 001°15'3 0.1
2014-Oct-17 17:33N 46°06' W 001°20'9 9.3
2014-Oct-17 16:33N 46°06' W 001°33'9 9.1
2014-Oct-17 15:33N 46°04' W 001°46'9 9.2
2014-Oct-17 14:33N 46°03' W 001°60'169 4.0
2014-Oct-15 20:33N 43°20' W 003°02'  
2014-Oct-11 12:23N 50°35' E 000°10'6 7.0
2014-Oct-11 11:33N 50°36' E 000°19'6 6.0
2014-Oct-11 10:33N 50°38' E 000°28'6 6.3
2014-Oct-11 09:33N 50°40' E 000°37'8 7.8
2014-Oct-11 08:33N 50°45' E 000°47'20 9.5
2014-Oct-11 06:30N 50°57' E 001°12'9 9.2
2014-Oct-11 05:33N 51°02' E 001°23'8 8.0
2014-Oct-11 04:33N 51°07' E 001°33'6 6.1
2014-Oct-11 03:33N 51°11' E 001°40'5 5.4
2014-Oct-11 02:33N 51°15' E 001°46'6 5.7
2014-Oct-11 01:34N 51°20' E 001°50'7 6.8
2014-Oct-11 00:34N 51°26' E 001°55'9 8.6
2014-Oct-10 23:33N 51°32' E 002°05'10 9.8
2014-Oct-10 22:33N 51°39' E 002°16'55 8.5
2014-Oct-10 16:04N 52°03' E 003°36'4 7.4
2014-Oct-10 15:30N 52°04' E 003°43'7 7.3
2014-Oct-10 14:33N 52°02' E 003°54'7 7.3
2014-Oct-10 13:33N 51°59' E 004°04'1010.2
2014-Oct-10 12:33N 51°54' E 004°18'2 1.8
2014-Oct-10 11:32N 51°54' E 004°21'0 0.0
2014-Oct-10 10:32N 51°54' E 004°21'0 0.0
2014-Oct-10 09:32N 51°54' E 004°21'0 0.0
2014-Oct-10 08:32N 51°54' E 004°21'0 0.0
2014-Oct-10 07:32N 51°54' E 004°21'0 0.0
2014-Oct-10 06:32N 51°54' E 004°21'  

Dump ship's entire track history